El Galpon, Argentina
Current Conditions -  °F | °C
As of 12:00 PM on Tuesday 21 Oct 2014 (Local Time) from SASA Reporting Station
Broken Clouds Broken Clouds  
Wind Chill: 73°   Ceiling: 20000
Heat Index: 73°   Visibility: 6mi
Dew Point: 57°   Wind: 6mph
Humidity: 57%   Direction: 50°NE
Pressure: 30.21"   Gusts: NA
Location:  25.38°S, 64.63°W
Report Text: SASA 211500Z 05005KT 9999 SCT017 BKN20023/14 Q1023
Loading
Personal Weather Stations






























Interactive Weather Map
Tropical Storm Tracking
New forecast layout! Learn more

10-Day Weather Forecast

Advertisements
Track Severe Weather on mobile